createdAt,value
2018-09-15T00:00:44.082Z,20.47
2018-09-15T00:03:12.560Z,19.83
2018-09-15T00:05:41.189Z,16.47
2018-09-15T00:08:09.991Z,18.60
2018-09-15T00:10:38.478Z,15.90
2018-09-15T00:13:07.236Z,14.83
2018-09-15T00:15:35.779Z,16.50
2018-09-15T00:18:06.571Z,26.77
2018-09-15T00:20:35.163Z,25.83
2018-09-15T00:23:03.847Z,24.23
2018-09-15T00:25:33.738Z,17.23
2018-09-15T00:28:02.801Z,24.00
2018-09-15T00:30:32.035Z,19.00
2018-09-15T00:33:01.587Z,20.17
2018-09-15T00:35:30.577Z,25.20
2018-09-15T00:37:59.167Z,21.53
2018-09-15T00:40:27.682Z,22.10
2018-09-15T00:42:56.679Z,21.93
2018-09-15T00:45:26.040Z,26.47
2018-09-15T00:47:54.507Z,24.90
2018-09-15T00:50:23.118Z,18.13
2018-09-15T00:52:51.799Z,16.73
2018-09-15T00:55:20.343Z,20.23
2018-09-15T00:57:49.518Z,20.30
2018-09-15T01:00:18.832Z,16.60
2018-09-15T01:02:47.366Z,15.20
2018-09-15T01:05:16.139Z,15.60
2018-09-15T01:07:44.676Z,13.73
2018-09-15T01:10:13.381Z,15.50
2018-09-15T01:12:42.081Z,18.03
2018-09-15T01:15:10.700Z,22.53
2018-09-15T01:17:39.212Z,16.47
2018-09-15T01:20:07.803Z,17.93
2018-09-15T01:22:36.573Z,20.67
2018-09-15T01:25:05.658Z,21.07
2018-09-15T01:27:34.176Z,26.90
2018-09-15T01:30:02.761Z,17.30
2018-09-15T01:32:31.210Z,28.87
2018-09-15T01:34:59.618Z,19.17
2018-09-15T01:37:28.113Z,20.20
2018-09-15T01:39:56.691Z,25.93
2018-09-15T01:42:25.541Z,42.47
2018-09-15T01:44:53.927Z,23.07
2018-09-15T01:47:22.302Z,17.97
2018-09-15T01:49:51.176Z,24.10
2018-09-15T01:52:19.533Z,20.63
2018-09-15T01:54:47.973Z,25.17
2018-09-15T01:57:16.353Z,19.57
2018-09-15T01:59:45.065Z,20.43
2018-09-15T02:02:13.795Z,22.57
2018-09-15T02:04:42.232Z,16.87
2018-09-15T02:07:10.937Z,20.00
2018-09-15T02:09:39.875Z,17.83
2018-09-15T02:12:08.389Z,16.97
2018-09-15T02:14:37.085Z,18.67
2018-09-15T02:17:05.502Z,14.57
2018-09-15T02:19:33.873Z,20.20
2018-09-15T02:22:02.378Z,25.33
2018-09-15T02:24:30.843Z,28.00
2018-09-15T02:26:59.281Z,14.60
2018-09-15T02:29:27.663Z,17.73
2018-09-15T02:31:57.440Z,15.80
2018-09-15T02:34:25.886Z,18.87
2018-09-15T02:36:54.661Z,18.03
2018-09-15T02:39:23.144Z,15.63
2018-09-15T02:41:51.672Z,20.13
2018-09-15T02:44:20.160Z,27.03
2018-09-15T02:46:48.588Z,14.00
2018-09-15T02:49:17.285Z,11.43
2018-09-15T02:51:45.677Z,11.73
2018-09-15T02:54:14.136Z,12.70
2018-09-15T02:56:42.572Z,11.90
2018-09-15T02:59:11.216Z,11.53
2018-09-15T03:01:39.653Z,12.73
2018-09-15T03:04:08.065Z,11.10
2018-09-15T03:06:36.534Z,13.97
2018-09-15T03:09:08.042Z,11.67
2018-09-15T03:11:36.555Z,14.77
2018-09-15T03:14:05.057Z,12.00
2018-09-15T03:16:34.004Z,18.27
2018-09-15T03:19:02.474Z,13.50
2018-09-15T03:21:30.918Z,19.23
2018-09-15T03:23:59.618Z,19.03
2018-09-15T03:26:28.135Z,12.60
2018-09-15T03:28:56.761Z,16.23
2018-09-15T03:31:25.628Z,12.03
2018-09-15T03:33:54.404Z,14.43
2018-09-15T03:36:23.010Z,13.20
2018-09-15T03:38:51.476Z,10.87
2018-09-15T03:41:20.826Z,10.80
2018-09-15T03:43:49.718Z,12.23
2018-09-15T03:46:18.980Z,12.70
2018-09-15T03:48:47.384Z,12.10
2018-09-15T03:51:15.866Z,12.17
2018-09-15T03:53:45.200Z,15.77
2018-09-15T03:56:13.879Z,11.40
2018-09-15T03:58:42.380Z,18.10
2018-09-15T04:01:10.880Z,16.00
2018-09-15T04:03:39.309Z,14.63
2018-09-15T04:06:08.832Z,13.90
2018-09-15T04:08:37.285Z,17.17
2018-09-15T04:11:05.848Z,17.87
2018-09-15T04:13:34.417Z,10.70
2018-09-15T04:16:03.780Z,12.13
2018-09-15T04:18:32.288Z,17.07
2018-09-15T04:21:00.812Z,12.97
2018-09-15T04:23:29.672Z,11.10
2018-09-15T04:25:58.441Z,11.70
2018-09-15T04:28:26.993Z,16.27
2018-09-15T04:30:55.726Z,11.23
2018-09-15T04:33:24.716Z,14.53
2018-09-15T04:35:53.178Z,10.50
2018-09-15T04:38:21.610Z,12.80
2018-09-15T04:40:50.049Z,15.10
2018-09-15T04:43:18.399Z,17.80
2018-09-15T04:45:46.954Z,17.17
2018-09-15T04:48:15.446Z,11.20
2018-09-15T04:50:43.887Z,17.83
2018-09-15T04:53:12.392Z,12.03
2018-09-15T04:55:40.836Z,19.00
2018-09-15T04:58:10.187Z,13.57
2018-09-15T05:00:40.282Z,15.20
2018-09-15T05:03:09.794Z,11.30
2018-09-15T05:05:38.953Z,13.20
2018-09-15T05:08:07.553Z,13.20
2018-09-15T05:10:36.015Z,8.17
2018-09-15T05:13:04.594Z,9.83
2018-09-15T05:15:33.333Z,20.87
2018-09-15T05:18:01.746Z,13.20
2018-09-15T05:20:30.260Z,9.07
2018-09-15T05:22:58.703Z,8.63
2018-09-15T05:25:28.859Z,12.27
2018-09-15T05:27:57.650Z,8.20
2018-09-15T05:30:26.746Z,11.40
2018-09-15T05:32:55.262Z,9.73
2018-09-15T05:35:23.762Z,18.83
2018-09-15T05:37:52.356Z,10.10
2018-09-15T05:40:20.790Z,11.00
2018-09-15T05:42:49.897Z,9.17
2018-09-15T05:45:18.294Z,8.10
2018-09-15T05:47:46.858Z,11.03
2018-09-15T05:50:15.320Z,9.43
2018-09-15T05:52:43.940Z,10.00
2018-09-15T05:55:12.679Z,5.60
2018-09-15T05:57:41.320Z,5.33
2018-09-15T06:00:10.756Z,14.57
2018-09-15T06:02:39.246Z,11.50
2018-09-15T06:05:07.700Z,4.40
2018-09-15T06:07:36.513Z,4.13
2018-09-15T06:10:05.134Z,4.83
2018-09-15T06:12:33.561Z,4.47
2018-09-15T06:15:02.166Z,4.00
2018-09-15T06:17:30.599Z,6.77
2018-09-15T06:19:59.140Z,3.60
2018-09-15T06:22:27.718Z,7.50
2018-09-15T06:24:56.163Z,8.47
2018-09-15T06:27:24.955Z,5.37
2018-09-15T06:29:53.412Z,4.53
2018-09-15T06:32:22.042Z,8.30
2018-09-15T06:34:50.564Z,4.70
2018-09-15T06:37:19.179Z,4.37
2018-09-15T06:39:47.759Z,4.83
2018-09-15T06:42:16.320Z,3.47
2018-09-15T06:44:45.114Z,3.73
2018-09-15T06:47:14.240Z,10.17
2018-09-15T06:49:42.960Z,5.40
2018-09-15T06:52:12.163Z,9.63
2018-09-15T06:54:40.907Z,4.60
2018-09-15T06:57:09.848Z,5.07
2018-09-15T06:59:38.266Z,4.43
2018-09-15T07:02:07.418Z,3.23
2018-09-15T07:04:35.900Z,9.23
2018-09-15T07:07:04.530Z,10.27
2018-09-15T07:09:32.937Z,17.63
2018-09-15T07:12:02.327Z,5.20
2018-09-15T07:14:30.799Z,5.23
2018-09-15T07:16:59.527Z,2.80
2018-09-15T07:19:28.634Z,7.87
2018-09-15T07:21:57.345Z,2.57
2018-09-15T07:24:26.752Z,8.03
2018-09-15T07:26:55.374Z,5.40
2018-09-15T07:29:24.482Z,3.23
2018-09-15T07:31:52.960Z,6.03
2018-09-15T07:34:22.665Z,6.00
2018-09-15T07:36:51.608Z,5.40
2018-09-15T07:39:20.296Z,6.20
2018-09-15T07:41:48.719Z,10.10
2018-09-15T07:44:17.308Z,4.40
2018-09-15T07:46:45.835Z,5.63
2018-09-15T07:49:14.476Z,6.17
2018-09-15T07:51:43.054Z,6.57
2018-09-15T07:54:12.179Z,5.03
2018-09-15T07:56:40.752Z,8.93
2018-09-15T07:59:09.492Z,6.73
2018-09-15T08:01:38.147Z,6.77
2018-09-15T08:04:06.860Z,2.57
2018-09-15T08:06:35.668Z,3.13
2018-09-15T08:09:04.961Z,8.30
2018-09-15T08:11:33.531Z,2.43
2018-09-15T08:14:01.851Z,3.43
2018-09-15T08:16:30.381Z,7.17
2018-09-15T08:18:59.106Z,2.60
2018-09-15T08:21:27.655Z,2.77
2018-09-15T08:23:56.233Z,7.23
2018-09-15T08:26:24.869Z,4.93
2018-09-15T08:28:53.491Z,6.43
2018-09-15T08:31:22.297Z,4.03
2018-09-15T08:33:51.496Z,7.90
2018-09-15T08:36:20.089Z,2.67
2018-09-15T08:38:49.096Z,2.80
2018-09-15T08:41:17.666Z,4.80
2018-09-15T08:43:46.037Z,6.43
2018-09-15T08:46:14.977Z,7.53
2018-09-15T08:48:43.550Z,7.43
2018-09-15T08:51:12.095Z,4.57
2018-09-15T08:53:42.620Z,6.20
2018-09-15T08:56:11.140Z,4.40
2018-09-15T08:58:39.567Z,7.40
2018-09-15T09:01:08.471Z,7.97
2018-09-15T09:03:36.897Z,9.50
2018-09-15T09:06:05.384Z,3.97
2018-09-15T09:08:34.273Z,3.20
2018-09-15T09:11:02.912Z,2.40
2018-09-15T09:13:31.341Z,9.53
2018-09-15T09:15:59.914Z,7.70
2018-09-15T09:18:28.447Z,4.67
2018-09-15T09:20:57.834Z,5.23
2018-09-15T09:23:26.795Z,4.13
2018-09-15T09:25:55.321Z,6.97
2018-09-15T09:28:23.927Z,7.43
2018-09-15T09:30:53.369Z,7.60
2018-09-15T09:33:22.016Z,8.40
2018-09-15T09:35:50.692Z,3.03
2018-09-15T09:38:19.343Z,8.67
2018-09-15T09:40:52.095Z,2.13
2018-09-15T09:43:24.714Z,3.87
2018-09-15T09:45:53.252Z,5.07
2018-09-15T09:48:21.703Z,10.63
2018-09-15T09:50:50.042Z,12.10
2018-09-15T09:53:18.497Z,3.60
2018-09-15T09:55:47.388Z,6.80
2018-09-15T09:58:16.618Z,6.07
2018-09-15T10:00:49.272Z,7.73
2018-09-15T10:03:17.866Z,14.73
2018-09-15T10:05:46.371Z,6.37
2018-09-15T10:08:14.891Z,4.57
2018-09-15T10:10:43.319Z,9.23
2018-09-15T10:13:11.987Z,13.13
2018-09-15T10:15:41.253Z,8.93
2018-09-15T10:18:10.006Z,17.13
2018-09-15T10:20:38.654Z,8.67
2018-09-15T10:23:07.251Z,8.73
2018-09-15T10:25:36.524Z,4.57
2018-09-15T10:28:04.971Z,5.37
2018-09-15T10:30:34.107Z,6.73
2018-09-15T10:33:02.513Z,7.90
2018-09-15T10:35:30.960Z,7.60
2018-09-15T10:37:59.847Z,13.37
2018-09-15T10:40:28.783Z,11.67
2018-09-15T10:42:57.185Z,11.70
2018-09-15T10:45:25.756Z,10.17
2018-09-15T10:47:54.340Z,10.93
2018-09-15T10:50:22.840Z,22.83
2018-09-15T10:52:51.294Z,19.33
2018-09-15T10:55:19.778Z,16.00
2018-09-15T10:57:48.528Z,16.23
2018-09-15T11:00:17.259Z,12.33
2018-09-15T11:02:47.581Z,25.27
2018-09-15T11:05:16.471Z,21.70
2018-09-15T11:07:44.938Z,16.73
2018-09-15T11:10:13.787Z,17.60
2018-09-15T11:12:42.308Z,14.33
2018-09-15T11:15:10.812Z,13.07
2018-09-15T11:17:39.319Z,19.03
2018-09-15T11:20:07.760Z,15.40
2018-09-15T11:22:36.615Z,12.37
2018-09-15T11:25:05.024Z,15.70
2018-09-15T11:27:33.512Z,11.57
2018-09-15T11:30:01.906Z,11.53
2018-09-15T11:32:30.486Z,12.93
2018-09-15T11:34:59.023Z,12.60
2018-09-15T11:37:27.565Z,10.50
2018-09-15T11:39:56.164Z,9.33
2018-09-15T11:42:24.728Z,8.97
2018-09-15T11:44:53.475Z,17.00
2018-09-15T11:47:22.243Z,9.83
2018-09-15T11:49:50.704Z,12.30
2018-09-15T11:52:19.242Z,9.63
2018-09-15T11:54:47.806Z,12.63
2018-09-15T11:57:16.451Z,15.00
2018-09-15T11:59:45.816Z,12.93
2018-09-15T12:02:15.109Z,17.50
2018-09-15T12:04:43.888Z,9.93
2018-09-15T12:07:12.399Z,16.43
2018-09-15T12:09:40.850Z,11.40
2018-09-15T12:12:09.351Z,8.87
2018-09-15T12:14:37.935Z,9.93
2018-09-15T12:17:06.862Z,9.30
2018-09-15T12:19:35.995Z,6.07
2018-09-15T12:22:04.807Z,4.77
2018-09-15T12:24:33.401Z,4.93
2018-09-15T12:27:02.289Z,10.10
2018-09-15T12:29:31.270Z,4.90
2018-09-15T12:31:59.823Z,6.50
2018-09-15T12:34:28.914Z,4.77
2018-09-15T12:36:58.200Z,9.20
2018-09-15T12:39:27.542Z,12.77
2018-09-15T12:41:56.396Z,6.80
2018-09-15T12:44:25.037Z,5.97
2018-09-15T12:46:53.542Z,6.80
2018-09-15T12:49:22.004Z,10.07
2018-09-15T12:51:50.571Z,4.70
2018-09-15T12:54:19.553Z,6.90
2018-09-15T12:56:48.185Z,9.10
2018-09-15T12:59:16.645Z,5.67
2018-09-15T13:01:45.354Z,5.03
2018-09-15T13:04:14.743Z,5.33
2018-09-15T13:06:44.112Z,5.27
2018-09-15T13:09:13.366Z,4.60
2018-09-15T13:11:41.963Z,5.00
2018-09-15T13:14:10.387Z,8.87
2018-09-15T13:16:39.240Z,12.20
2018-09-15T13:19:07.658Z,13.83
2018-09-15T13:21:36.091Z,14.73
2018-09-15T13:24:05.497Z,4.90
2018-09-15T13:26:34.196Z,15.00
2018-09-15T13:29:02.728Z,5.90
2018-09-15T13:31:31.306Z,7.60
2018-09-15T13:34:00.439Z,6.17
2018-09-15T13:36:28.865Z,5.30
2018-09-15T13:38:57.604Z,8.60
2018-09-15T13:41:25.986Z,8.37
2018-09-15T13:43:54.572Z,5.10
2018-09-15T13:46:23.100Z,10.40
2018-09-15T13:48:53.267Z,11.93
2018-09-15T13:51:21.699Z,8.13
2018-09-15T13:53:50.310Z,5.43
2018-09-15T13:56:18.777Z,5.43
2018-09-15T13:58:47.269Z,3.60
2018-09-15T14:01:15.564Z,3.97
2018-09-15T14:03:43.996Z,6.63
2018-09-15T14:06:12.631Z,3.70
2018-09-15T14:08:41.310Z,5.90
2018-09-15T14:11:09.681Z,5.30
2018-09-15T14:13:38.029Z,5.00
2018-09-15T14:16:07.906Z,4.93
2018-09-15T14:18:36.266Z,4.10
2018-09-15T14:21:05.069Z,6.73
2018-09-15T14:23:34.253Z,2.67
2018-09-15T14:26:03.711Z,2.43
2018-09-15T14:28:32.205Z,4.70
2018-09-15T14:31:02.067Z,2.03
2018-09-15T14:33:30.938Z,2.70
2018-09-15T14:35:59.788Z,6.90
2018-09-15T14:38:28.332Z,1.77
2018-09-15T14:40:57.477Z,1.30
2018-09-15T14:43:25.842Z,1.63
2018-09-15T14:45:54.441Z,3.43
2018-09-15T14:48:23.302Z,1.73
2018-09-15T14:50:51.589Z,1.40
2018-09-15T14:53:20.048Z,1.10
2018-09-15T14:55:48.542Z,1.63
2018-09-15T14:58:17.863Z,1.50
2018-09-15T15:00:46.981Z,1.70
2018-09-15T15:03:15.899Z,7.13
2018-09-15T15:05:44.494Z,5.73
2018-09-15T15:08:13.211Z,1.90
2018-09-15T15:10:42.028Z,1.57
2018-09-15T15:13:10.721Z,1.63
2018-09-15T15:15:39.716Z,1.83
2018-09-15T15:18:08.153Z,1.70
2018-09-15T15:20:36.635Z,2.23
2018-09-15T15:23:05.097Z,3.87
2018-09-15T15:25:33.717Z,2.30
2018-09-15T15:28:02.101Z,4.83
2018-09-15T15:30:31.460Z,3.80
2018-09-15T15:33:00.950Z,1.50
2018-09-15T15:35:30.194Z,5.80
2018-09-15T15:37:58.888Z,3.60
2018-09-15T15:40:27.341Z,3.90
2018-09-15T15:42:56.653Z,1.80
2018-09-15T15:45:25.727Z,10.03
2018-09-15T15:47:54.232Z,7.50
2018-09-15T15:50:23.125Z,10.00
2018-09-15T15:52:51.504Z,9.70
2018-09-15T15:55:20.108Z,3.53
2018-09-15T15:57:48.673Z,8.60
2018-09-15T16:00:21.045Z,1.43
2018-09-15T16:02:49.665Z,2.90
2018-09-15T16:05:18.612Z,5.20
2018-09-15T16:07:47.251Z,10.90
2018-09-15T16:10:15.842Z,1.93
2018-09-15T16:12:44.537Z,2.70
2018-09-15T16:15:13.179Z,3.33
2018-09-15T16:17:42.004Z,8.57
2018-09-15T16:20:10.611Z,2.10
2018-09-15T16:22:39.275Z,2.40
2018-09-15T16:25:07.692Z,2.57
2018-09-15T16:27:36.238Z,3.23
2018-09-15T16:30:05.297Z,4.33
2018-09-15T16:32:33.624Z,6.87
2018-09-15T16:35:02.391Z,10.90
2018-09-15T16:37:30.861Z,4.03
2018-09-15T16:39:59.366Z,5.70
2018-09-15T16:42:27.696Z,5.07
2018-09-15T16:44:56.202Z,3.07
2018-09-15T16:47:24.909Z,2.87
2018-09-15T16:49:53.769Z,4.33
2018-09-15T16:52:22.950Z,4.60
2018-09-15T16:54:51.807Z,8.33
2018-09-15T16:57:20.643Z,4.10
2018-09-15T16:59:49.696Z,2.60
2018-09-15T17:02:18.204Z,3.73
2018-09-15T17:04:47.099Z,3.17
2018-09-15T17:07:22.036Z,14.17
2018-09-15T17:09:54.231Z,6.27
2018-09-15T17:12:25.704Z,4.90
2018-09-15T17:14:55.546Z,3.83
2018-09-15T17:17:25.668Z,11.50
2018-09-15T17:19:57.649Z,8.60
2018-09-15T17:22:27.368Z,9.03
2018-09-15T17:24:58.319Z,5.83
2018-09-15T17:27:28.463Z,8.43
2018-09-15T17:29:57.734Z,9.10
2018-09-15T17:32:27.171Z,10.03
2018-09-15T17:34:57.364Z,4.57
2018-09-15T17:37:26.238Z,11.20
2018-09-15T17:39:55.761Z,5.93
2018-09-15T17:42:26.923Z,8.13
2018-09-15T17:44:56.094Z,5.93
2018-09-15T17:47:27.422Z,5.47
2018-09-15T17:49:56.103Z,7.50
2018-09-15T17:52:25.158Z,12.80
2018-09-15T17:54:53.810Z,10.43
2018-09-15T17:57:22.533Z,10.00
2018-09-15T17:59:51.480Z,8.67
2018-09-15T18:02:19.846Z,5.53
2018-09-15T18:04:48.367Z,5.73
2018-09-15T18:07:17.121Z,7.27
2018-09-15T18:09:46.787Z,7.20
2018-09-15T18:12:15.816Z,8.30
2018-09-15T18:14:44.497Z,10.63
2018-09-15T18:17:13.668Z,7.00
2018-09-15T18:19:43.207Z,8.20
2018-09-15T18:22:13.000Z,8.53
2018-09-15T18:24:42.302Z,5.37
2018-09-15T18:27:11.930Z,6.40
2018-09-15T18:29:41.793Z,8.00
2018-09-15T18:32:11.162Z,10.00
2018-09-15T18:34:40.570Z,6.80
2018-09-15T18:37:09.773Z,7.63
2018-09-15T18:39:38.327Z,6.40
2018-09-15T18:42:07.101Z,6.83
2018-09-15T18:44:35.897Z,9.30
2018-09-15T18:47:04.280Z,8.57
2018-09-15T18:49:32.793Z,11.97
2018-09-15T18:52:01.339Z,7.80
2018-09-15T18:54:30.700Z,15.47
2018-09-15T18:56:59.269Z,8.70
2018-09-15T18:59:27.772Z,14.20
2018-09-15T19:01:56.706Z,9.37
2018-09-15T19:04:25.915Z,12.07
2018-09-15T19:06:54.384Z,9.90
2018-09-15T19:09:22.980Z,7.23
2018-09-15T19:11:51.810Z,7.30
2018-09-15T19:14:20.311Z,9.10
2018-09-15T19:16:48.882Z,14.20
2018-09-15T19:19:17.613Z,9.70
2018-09-15T19:21:46.096Z,11.73
2018-09-15T19:24:14.576Z,8.60
2018-09-15T19:26:43.175Z,16.33
2018-09-15T19:29:11.568Z,12.90
2018-09-15T19:31:40.154Z,9.83
2018-09-15T19:34:08.532Z,10.87
2018-09-15T19:36:37.303Z,17.20
2018-09-15T19:39:09.147Z,10.80
2018-09-15T19:41:38.075Z,13.30
2018-09-15T19:44:06.792Z,15.90
2018-09-15T19:46:35.718Z,14.43
2018-09-15T19:49:04.253Z,12.77
2018-09-15T19:51:33.029Z,11.63
2018-09-15T19:54:02.260Z,11.13
2018-09-15T19:56:31.274Z,18.50
2018-09-15T19:58:59.837Z,17.03
2018-09-15T20:01:28.651Z,11.50
2018-09-15T20:03:57.243Z,23.17
2018-09-15T20:06:25.818Z,13.43
2018-09-15T20:08:54.370Z,23.00
2018-09-15T20:11:22.880Z,22.10
2018-09-15T20:13:51.750Z,15.53
2018-09-15T20:16:19.889Z,16.70
2018-09-15T20:18:47.230Z,18.30
2018-09-15T20:21:15.312Z,17.53
2018-09-15T20:23:44.645Z,23.03
2018-09-15T20:26:13.239Z,19.90
2018-09-15T20:28:41.742Z,19.90
2018-09-15T20:31:10.388Z,37.60
2018-09-15T20:33:38.909Z,21.90
2018-09-15T20:36:07.591Z,18.67
2018-09-15T20:38:36.743Z,25.50
2018-09-15T20:41:05.621Z,15.57
2018-09-15T20:43:33.964Z,16.80
2018-09-15T20:46:02.645Z,26.20
2018-09-15T20:48:31.035Z,17.10
2018-09-15T20:50:59.721Z,17.90
2018-09-15T20:53:28.235Z,25.53
2018-09-15T20:55:56.608Z,23.03
2018-09-15T20:58:27.035Z,15.30
2018-09-15T21:00:55.455Z,20.50
2018-09-15T21:03:25.301Z,21.50
2018-09-15T21:05:53.829Z,29.00
2018-09-15T21:08:22.426Z,18.63
2018-09-15T21:10:50.861Z,17.83
2018-09-15T21:13:19.419Z,34.23
2018-09-15T21:15:47.918Z,18.97
2018-09-15T21:18:16.467Z,22.10
2018-09-15T21:20:45.010Z,22.83
2018-09-15T21:23:13.463Z,20.63
2018-09-15T21:25:42.195Z,26.83
2018-09-15T21:28:10.944Z,23.80
2018-09-15T21:30:39.510Z,24.53
2018-09-15T21:33:08.097Z,21.90
2018-09-15T21:35:36.558Z,23.27
2018-09-15T21:38:05.061Z,18.17
2018-09-15T21:40:34.040Z,18.80
2018-09-15T21:43:02.905Z,25.50
2018-09-15T21:45:31.878Z,23.70
2018-09-15T21:48:00.351Z,23.50
2018-09-15T21:50:28.964Z,23.80
2018-09-15T21:52:57.480Z,26.43
2018-09-15T21:55:26.162Z,30.83
2018-09-15T21:57:57.731Z,35.03
2018-09-15T22:00:26.360Z,36.20
2018-09-15T22:02:57.780Z,33.10
2018-09-15T22:05:26.435Z,26.17
2018-09-15T22:07:54.968Z,30.83
2018-09-15T22:10:23.798Z,28.90
2018-09-15T22:12:52.270Z,34.00
2018-09-15T22:15:24.854Z,23.27
2018-09-15T22:17:54.297Z,25.47
2018-09-15T22:20:22.779Z,28.10
2018-09-15T22:22:51.495Z,25.93
2018-09-15T22:25:20.554Z,22.13
2018-09-15T22:27:49.672Z,36.57
2018-09-15T22:30:18.417Z,29.87
2018-09-15T22:32:46.779Z,26.23
2018-09-15T22:35:15.212Z,32.90
2018-09-15T22:37:43.597Z,33.97
2018-09-15T22:40:12.377Z,29.20
2018-09-15T22:42:40.950Z,21.60
2018-09-15T22:45:09.344Z,27.20
2018-09-15T22:47:37.771Z,30.23
2018-09-15T22:50:06.906Z,26.47
2018-09-15T22:52:35.504Z,31.60
2018-09-15T22:55:04.507Z,24.17
2018-09-15T22:57:33.171Z,21.63
2018-09-15T23:00:01.974Z,24.00
2018-09-15T23:02:30.333Z,30.70
2018-09-15T23:04:58.882Z,21.43
2018-09-15T23:07:27.753Z,31.53
2018-09-15T23:09:56.193Z,27.10
2018-09-15T23:12:24.673Z,22.23
2018-09-15T23:14:53.057Z,25.47
2018-09-15T23:17:21.426Z,28.50
2018-09-15T23:19:52.895Z,21.30
2018-09-15T23:22:21.432Z,23.97
2018-09-15T23:24:50.003Z,22.20
2018-09-15T23:27:18.633Z,23.10
2018-09-15T23:29:47.167Z,23.17
2018-09-15T23:32:15.609Z,25.87
2018-09-15T23:34:43.979Z,21.20
2018-09-15T23:37:12.488Z,23.10
2018-09-15T23:39:40.907Z,36.70
2018-09-15T23:42:09.584Z,21.83
2018-09-15T23:44:38.031Z,23.40
2018-09-15T23:47:06.495Z,21.67
2018-09-15T23:49:35.168Z,26.27
2018-09-15T23:52:03.593Z,24.87
2018-09-15T23:54:32.047Z,22.30
2018-09-15T23:57:01.093Z,21.73
2018-09-15T23:59:29.700Z,22.50
